createdAt,value
2023-04-12T00:01:35.653Z,1.40
2023-04-12T00:04:03.131Z,1.60
2023-04-12T00:06:31.855Z,1.33
2023-04-12T00:09:01.074Z,1.77
2023-04-12T00:11:29.153Z,1.40
2023-04-12T00:13:56.543Z,1.60
2023-04-12T00:16:24.043Z,1.90
2023-04-12T00:18:51.279Z,1.27
2023-04-12T00:21:18.484Z,1.23
2023-04-12T00:23:48.733Z,1.23
2023-04-12T00:26:16.324Z,1.40
2023-04-12T00:28:43.504Z,1.17
2023-04-12T00:31:10.751Z,1.20
2023-04-12T00:33:37.978Z,1.40
2023-04-12T00:36:05.633Z,1.37
2023-04-12T00:38:32.847Z,1.37
2023-04-12T00:41:00.769Z,1.20
2023-04-12T00:43:27.937Z,1.30
2023-04-12T00:45:57.499Z,1.23
2023-04-12T00:48:26.438Z,1.60
2023-04-12T00:50:54.602Z,1.60
2023-04-12T00:53:22.398Z,1.20
2023-04-12T00:55:51.207Z,1.00
2023-04-12T00:58:18.799Z,1.03
2023-04-12T01:00:46.270Z,1.20
2023-04-12T01:03:13.712Z,1.10
2023-04-12T01:05:57.980Z,0.93
2023-04-12T01:08:38.099Z,1.10
2023-04-12T01:11:34.853Z,1.10
2023-04-12T01:14:28.544Z,1.20
2023-04-12T01:17:03.588Z,0.97
2023-04-12T01:19:33.393Z,1.30
2023-04-12T01:22:53.898Z,1.10
2023-04-12T01:25:48.238Z,1.20
2023-04-12T01:28:22.532Z,1.13
2023-04-12T01:30:51.598Z,1.10
2023-04-12T01:33:21.669Z,1.07
2023-04-12T01:35:51.660Z,1.07
2023-04-12T01:38:19.949Z,1.30
2023-04-12T01:40:49.168Z,1.20
2023-04-12T01:43:16.594Z,0.97
2023-04-12T01:45:43.797Z,1.20
2023-04-12T01:48:12.975Z,1.10
2023-04-12T01:51:10.674Z,1.13
2023-04-12T01:54:13.124Z,1.00
2023-04-12T01:56:46.461Z,1.00
2023-04-12T01:59:18.767Z,0.90
2023-04-12T02:01:47.897Z,1.57
2023-04-12T02:04:19.260Z,1.10
2023-04-12T02:06:48.136Z,0.90
2023-04-12T02:09:15.306Z,0.97
2023-04-12T02:11:46.725Z,0.87
2023-04-12T02:14:14.307Z,1.10
2023-04-12T02:16:41.726Z,0.80
2023-04-12T02:19:09.303Z,1.10
2023-04-12T02:21:46.377Z,0.90
2023-04-12T02:24:15.665Z,1.27
2023-04-12T02:26:42.911Z,0.83
2023-04-12T02:29:10.872Z,0.90
2023-04-12T02:31:38.598Z,0.90
2023-04-12T02:34:06.515Z,1.00
2023-04-12T02:36:33.879Z,1.07
2023-04-12T02:39:01.096Z,0.97
2023-04-12T02:41:28.285Z,1.10
2023-04-12T02:43:55.782Z,1.10
2023-04-12T02:46:25.808Z,1.10
2023-04-12T02:48:53.317Z,0.97
2023-04-12T02:51:20.452Z,1.10
2023-04-12T02:53:47.561Z,1.20
2023-04-12T02:56:14.785Z,1.10
2023-04-12T02:58:42.097Z,1.30
2023-04-12T03:01:09.628Z,1.17
2023-04-12T03:03:36.900Z,1.10
2023-04-12T03:06:04.605Z,1.10
2023-04-12T03:08:31.820Z,1.20
2023-04-12T03:10:59.480Z,1.10
2023-04-12T03:13:26.706Z,0.93
2023-04-12T03:15:58.587Z,1.20
2023-04-12T03:18:26.020Z,1.13
2023-04-12T03:20:53.197Z,1.20
2023-04-12T03:23:20.320Z,1.10
2023-04-12T03:25:47.581Z,1.20
2023-04-12T03:28:14.807Z,1.10
2023-04-12T03:30:41.980Z,1.23
2023-04-12T03:33:09.173Z,1.43
2023-04-12T03:35:36.493Z,1.20
2023-04-12T03:38:03.665Z,1.13
2023-04-12T03:40:30.988Z,1.17
2023-04-12T03:42:59.920Z,1.27
2023-04-12T03:45:28.571Z,1.30
2023-04-12T03:47:55.871Z,1.40
2023-04-12T03:50:23.210Z,1.30
2023-04-12T03:52:50.301Z,1.10
2023-04-12T03:55:17.548Z,1.37
2023-04-12T03:57:44.784Z,1.40
2023-04-12T04:00:12.948Z,1.40
2023-04-12T04:02:40.171Z,1.60
2023-04-12T04:05:07.771Z,1.37
2023-04-12T04:07:35.073Z,1.40
2023-04-12T04:10:02.434Z,1.77
2023-04-12T04:12:29.671Z,2.13
2023-04-12T04:14:56.826Z,2.07
2023-04-12T04:17:25.987Z,1.40
2023-04-12T04:19:53.130Z,1.50
2023-04-12T04:22:21.919Z,1.40
2023-04-12T04:24:49.150Z,1.60
2023-04-12T04:27:16.416Z,1.30
2023-04-12T04:29:43.939Z,1.53
2023-04-12T04:32:12.769Z,1.90
2023-04-12T04:34:39.942Z,1.70
2023-04-12T04:37:07.131Z,1.80
2023-04-12T04:39:34.324Z,1.50
2023-04-12T04:42:01.499Z,1.50
2023-04-12T04:44:31.503Z,1.60
2023-04-12T04:46:58.867Z,1.60
2023-04-12T04:49:26.012Z,1.73
2023-04-12T04:51:53.369Z,2.10
2023-04-12T04:54:20.579Z,1.80
2023-04-12T04:56:47.703Z,1.80
2023-04-12T04:59:14.866Z,2.30
2023-04-12T05:01:42.155Z,2.20
2023-04-12T05:04:09.485Z,3.10
2023-04-12T05:06:36.665Z,4.30
2023-04-12T05:09:04.008Z,3.30
2023-04-12T05:11:31.204Z,3.70
2023-04-12T05:13:58.694Z,4.20
2023-04-12T05:16:26.026Z,4.33
2023-04-12T05:18:53.128Z,5.73
2023-04-12T05:21:20.635Z,5.27
2023-04-12T05:23:48.454Z,5.57
2023-04-12T05:26:16.856Z,6.00
2023-04-12T05:28:53.113Z,8.97
2023-04-12T05:31:20.729Z,7.07
2023-04-12T05:33:48.028Z,4.77
2023-04-12T05:36:15.254Z,4.13
2023-04-12T05:38:42.480Z,5.83
2023-04-12T05:41:09.824Z,4.47
2023-04-12T05:43:37.016Z,3.10
2023-04-12T05:46:06.110Z,2.90
2023-04-12T05:48:33.496Z,3.00
2023-04-12T05:51:02.450Z,3.50
2023-04-12T05:53:29.668Z,3.10
2023-04-12T05:55:56.874Z,3.03
2023-04-12T05:58:23.993Z,2.90
2023-04-12T06:00:51.205Z,2.93
2023-04-12T06:03:18.553Z,3.37
2023-04-12T06:05:45.848Z,3.47
2023-04-12T06:08:13.297Z,4.77
2023-04-12T06:10:40.736Z,4.10
2023-04-12T06:13:07.981Z,3.00
2023-04-12T06:15:35.163Z,3.30
2023-04-12T06:18:02.628Z,3.20
2023-04-12T06:20:29.884Z,3.03
2023-04-12T06:22:56.985Z,2.40
2023-04-12T06:25:24.349Z,2.70
2023-04-12T06:27:51.442Z,2.43
2023-04-12T06:30:19.746Z,2.73
2023-04-12T06:32:47.073Z,2.70
2023-04-12T06:35:14.298Z,3.30
2023-04-12T06:37:41.441Z,3.63
2023-04-12T06:40:10.114Z,3.33
2023-04-12T06:42:37.271Z,3.77
2023-04-12T06:45:05.257Z,3.20
2023-04-12T06:47:33.061Z,2.77
2023-04-12T06:50:00.505Z,3.20
2023-04-12T06:52:27.941Z,3.07
2023-04-12T06:54:56.229Z,3.50
2023-04-12T06:57:23.431Z,4.20
2023-04-12T06:59:50.668Z,4.27
2023-04-12T07:02:17.975Z,3.30
2023-04-12T07:04:45.302Z,3.20
2023-04-12T07:07:12.986Z,2.80
2023-04-12T07:09:40.165Z,3.20
2023-04-12T07:12:07.679Z,2.60
2023-04-12T07:14:34.917Z,3.23
2023-04-12T07:17:02.274Z,3.63
2023-04-12T07:19:29.593Z,3.53
2023-04-12T07:21:57.129Z,3.57
2023-04-12T07:24:24.573Z,2.77
2023-04-12T07:26:54.367Z,2.70
2023-04-12T07:29:21.620Z,2.30
2023-04-12T07:31:48.781Z,2.50
2023-04-12T07:34:16.311Z,2.40
2023-04-12T07:36:44.060Z,2.47
2023-04-12T07:39:11.658Z,2.33
2023-04-12T07:41:42.402Z,2.30
2023-04-12T07:44:09.789Z,2.40
2023-04-12T07:46:39.671Z,2.33
2023-04-12T07:49:07.131Z,2.33
2023-04-12T07:51:34.260Z,2.10
2023-04-12T07:54:01.451Z,2.07
2023-04-12T07:56:28.591Z,2.13
2023-04-12T07:58:55.993Z,1.90
2023-04-12T08:01:23.337Z,2.20
2023-04-12T08:03:50.516Z,2.20
2023-04-12T08:06:17.963Z,2.13
2023-04-12T08:08:45.161Z,1.90
2023-04-12T08:11:12.329Z,2.17
2023-04-12T08:13:39.493Z,3.10
2023-04-12T08:16:07.441Z,2.20
2023-04-12T08:18:34.591Z,2.20
2023-04-12T08:21:02.493Z,2.27
2023-04-12T08:23:29.987Z,1.90
2023-04-12T08:25:57.124Z,2.10
2023-04-12T08:28:24.286Z,2.17
2023-04-12T08:30:51.473Z,2.30
2023-04-12T08:33:18.994Z,2.20
2023-04-12T08:35:46.208Z,2.97
2023-04-12T08:38:13.384Z,2.47
2023-04-12T08:40:43.588Z,2.23
2023-04-12T08:43:12.738Z,2.50
2023-04-12T08:45:40.189Z,1.90
2023-04-12T08:48:07.518Z,1.60
2023-04-12T08:50:34.873Z,1.83
2023-04-12T08:53:03.194Z,4.07
2023-04-12T08:55:30.758Z,2.60
2023-04-12T08:57:59.337Z,2.53
2023-04-12T09:00:27.276Z,2.80
2023-04-12T09:02:54.626Z,4.00
2023-04-12T09:05:31.150Z,2.60
2023-04-12T09:07:59.221Z,4.60
2023-04-12T09:10:34.937Z,18.23
2023-04-12T09:13:03.191Z,3.60
2023-04-12T09:15:30.979Z,3.03
2023-04-12T09:18:09.697Z,2.67
2023-04-12T09:20:38.997Z,2.90
2023-04-12T09:23:22.128Z,2.57
2023-04-12T09:25:49.471Z,2.70
2023-04-12T09:28:26.352Z,2.20
2023-04-12T09:30:59.731Z,2.37
2023-04-12T09:33:38.009Z,1.60
2023-04-12T09:36:07.171Z,1.33
2023-04-12T09:38:34.907Z,1.70
2023-04-12T09:41:25.190Z,1.50
2023-04-12T09:43:54.494Z,1.70
2023-04-12T09:46:21.809Z,2.13
2023-04-12T09:48:55.636Z,2.03
2023-04-12T09:51:34.125Z,4.27
2023-04-12T09:54:09.075Z,4.00
2023-04-12T09:56:37.237Z,3.83
2023-04-12T09:59:06.764Z,4.37
2023-04-12T10:01:40.842Z,4.60
2023-04-12T10:04:09.671Z,5.00
2023-04-12T10:06:37.509Z,5.90
2023-04-12T10:09:05.820Z,5.57
2023-04-12T10:11:33.454Z,8.43
2023-04-12T10:14:03.273Z,9.10
2023-04-12T10:16:34.190Z,9.80
2023-04-12T10:19:04.034Z,9.50
2023-04-12T10:21:31.579Z,9.67
2023-04-12T10:23:59.704Z,10.37
2023-04-12T10:26:27.877Z,9.90
2023-04-12T10:29:23.531Z,9.57
2023-04-12T10:31:50.906Z,9.43
2023-04-12T10:34:18.263Z,9.47
2023-04-12T10:37:04.289Z,8.60
2023-04-12T10:39:51.819Z,9.37
2023-04-12T10:42:28.906Z,8.90
2023-04-12T10:45:23.957Z,9.37
2023-04-12T10:47:54.216Z,10.13
2023-04-12T10:50:33.403Z,9.47
2023-04-12T10:53:12.874Z,9.93
2023-04-12T10:55:40.972Z,9.60
2023-04-12T10:58:11.912Z,9.97
2023-04-12T11:01:01.262Z,10.10
2023-04-12T11:03:28.738Z,9.60
2023-04-12T11:06:20.218Z,9.37
2023-04-12T11:08:56.076Z,9.17
2023-04-12T11:11:25.397Z,10.00
2023-04-12T11:13:55.784Z,8.63
2023-04-12T11:16:23.241Z,9.33
2023-04-12T11:18:51.191Z,9.33
2023-04-12T11:21:19.503Z,10.93
2023-04-12T11:23:48.907Z,9.17
2023-04-12T11:26:30.059Z,9.30
2023-04-12T11:28:57.514Z,10.07
2023-04-12T11:31:24.845Z,9.87
2023-04-12T11:33:52.175Z,9.37
2023-04-12T11:36:19.404Z,9.03
2023-04-12T11:38:47.996Z,8.90
2023-04-12T11:41:15.571Z,9.20
2023-04-12T11:43:43.203Z,9.50
2023-04-12T11:46:10.651Z,8.93
2023-04-12T11:48:38.085Z,10.33
2023-04-12T11:51:24.490Z,9.70
2023-04-12T11:53:55.975Z,9.57
2023-04-12T11:56:23.980Z,8.93
2023-04-12T11:58:51.727Z,9.37
2023-04-12T12:01:24.045Z,9.47
2023-04-12T12:03:51.965Z,9.70
2023-04-12T12:06:20.776Z,9.37
2023-04-12T12:08:53.634Z,9.10
2023-04-12T12:11:22.161Z,9.30
2023-04-12T12:13:55.501Z,9.10
2023-04-12T12:16:30.479Z,8.87
2023-04-12T12:18:58.195Z,9.10
2023-04-12T12:21:26.167Z,8.70
2023-04-12T12:23:53.370Z,9.50
2023-04-12T12:26:26.538Z,10.13
2023-04-12T12:28:57.160Z,9.30
2023-04-12T12:31:27.108Z,9.77
2023-04-12T12:33:59.890Z,9.93
2023-04-12T12:36:36.613Z,9.57
2023-04-12T12:39:12.812Z,10.23
2023-04-12T12:41:41.017Z,10.10
2023-04-12T12:44:08.618Z,9.63
2023-04-12T12:49:06.306Z,9.20
2023-04-12T12:51:33.560Z,9.00
2023-04-12T12:54:00.831Z,10.37
2023-04-12T12:56:27.970Z,9.53
2023-04-12T12:58:55.393Z,10.40
2023-04-12T13:01:23.108Z,9.60
2023-04-12T13:03:50.444Z,9.90
2023-04-12T13:06:17.876Z,10.30
2023-04-12T13:08:45.031Z,9.77
2023-04-12T13:11:12.291Z,10.77
2023-04-12T13:13:39.511Z,10.23
2023-04-12T13:16:07.372Z,9.77
2023-04-12T13:18:34.561Z,9.70
2023-04-12T13:21:01.971Z,9.83
2023-04-12T13:23:29.226Z,11.50
2023-04-12T13:25:56.369Z,10.10
2023-04-12T13:28:23.528Z,11.33
2023-04-12T13:30:50.722Z,9.90
2023-04-12T13:33:20.288Z,12.97
2023-04-12T13:35:49.230Z,10.07
2023-04-12T13:38:16.410Z,10.60
2023-04-12T13:40:43.597Z,10.50
2023-04-12T13:43:10.897Z,11.37
2023-04-12T13:45:38.646Z,10.10
2023-04-12T13:48:06.001Z,10.07
2023-04-12T13:50:33.214Z,9.40
2023-04-12T13:53:00.398Z,9.70
2023-04-12T13:55:27.691Z,10.00
2023-04-12T13:57:54.843Z,9.57
2023-04-12T14:00:22.162Z,9.53
2023-04-12T14:02:49.616Z,8.70
2023-04-12T14:05:17.216Z,8.63
2023-04-12T14:07:44.385Z,9.00
2023-04-12T14:10:11.520Z,8.83
2023-04-12T14:12:38.835Z,9.60
2023-04-12T14:15:06.781Z,9.17
2023-04-12T14:17:34.003Z,10.17
2023-04-12T14:20:01.252Z,9.27
2023-04-12T14:22:28.687Z,10.30
2023-04-12T14:24:55.968Z,8.87
2023-04-12T14:27:23.178Z,9.83
2023-04-12T14:29:50.347Z,9.23
2023-04-12T14:32:17.510Z,10.27
2023-04-12T14:34:44.867Z,11.63
2023-04-12T14:37:12.007Z,14.13
2023-04-12T14:39:39.302Z,10.77
2023-04-12T14:42:06.790Z,9.90
2023-04-12T14:44:34.052Z,10.17
2023-04-12T14:47:01.461Z,9.50
2023-04-12T14:49:30.913Z,9.13
2023-04-12T14:52:01.797Z,9.23
2023-04-12T14:54:29.242Z,8.73
2023-04-12T14:56:56.525Z,8.93
2023-04-12T14:59:23.863Z,8.23
2023-04-12T15:01:51.145Z,8.00
2023-04-12T15:04:18.700Z,8.30
2023-04-12T15:06:45.884Z,8.47
2023-04-12T15:09:14.680Z,7.83
2023-04-12T15:11:41.913Z,8.70
2023-04-12T15:14:10.159Z,10.50
2023-04-12T15:16:37.365Z,10.13
2023-04-12T15:19:12.499Z,9.37
2023-04-12T15:21:43.100Z,8.77
2023-04-12T15:24:10.498Z,9.27
2023-04-12T15:26:38.035Z,8.03
2023-04-12T15:29:05.305Z,13.60
2023-04-12T15:31:32.646Z,13.57
2023-04-12T15:34:00.168Z,9.53
2023-04-12T15:36:27.675Z,9.63
2023-04-12T15:38:54.984Z,8.07
2023-04-12T15:41:22.277Z,8.10
2023-04-12T15:43:49.432Z,8.33
2023-04-12T15:46:16.723Z,7.77
2023-04-12T15:48:43.928Z,8.07
2023-04-12T15:51:11.072Z,8.73
2023-04-12T15:53:38.526Z,8.77
2023-04-12T15:56:06.418Z,8.67
2023-04-12T15:58:33.627Z,8.33
2023-04-12T16:01:01.192Z,9.00
2023-04-12T16:03:28.474Z,8.27
2023-04-12T16:05:55.733Z,8.43
2023-04-12T16:08:23.337Z,9.27
2023-04-12T16:10:50.956Z,8.57
2023-04-12T16:13:18.800Z,8.50
2023-04-12T16:15:47.097Z,8.63
2023-04-12T16:18:16.585Z,7.57
2023-04-12T16:20:43.813Z,8.07
2023-04-12T16:23:11.008Z,7.50
2023-04-12T16:25:38.187Z,7.80
2023-04-12T16:28:05.456Z,7.47
2023-04-12T16:30:33.546Z,8.17
2023-04-12T16:33:01.005Z,8.00
2023-04-12T16:35:28.268Z,7.17
2023-04-12T16:37:55.772Z,7.30
2023-04-12T16:40:23.408Z,7.30
2023-04-12T16:42:50.812Z,6.87
2023-04-12T16:45:18.278Z,8.40
2023-04-12T16:47:46.948Z,7.53
2023-04-12T16:50:14.976Z,7.10
2023-04-12T16:52:42.496Z,7.40
2023-04-12T16:55:10.711Z,7.53
2023-04-12T16:57:42.723Z,7.43
2023-04-12T17:00:13.681Z,8.10
2023-04-12T17:02:41.831Z,7.03
2023-04-12T17:05:09.612Z,7.70
2023-04-12T17:07:37.442Z,8.20
2023-04-12T17:10:06.106Z,7.53
2023-04-12T17:12:34.003Z,6.60
2023-04-12T17:15:01.161Z,7.27
2023-04-12T17:17:28.858Z,8.13
2023-04-12T17:19:57.318Z,7.43
2023-04-12T17:22:24.520Z,7.33
2023-04-12T17:24:51.672Z,7.20
2023-04-12T17:27:19.014Z,7.53
2023-04-12T17:29:46.193Z,7.00
2023-04-12T17:32:13.438Z,6.40
2023-04-12T17:34:40.890Z,9.90
2023-04-12T17:37:08.341Z,8.23
2023-04-12T17:39:35.528Z,7.60
2023-04-12T17:42:02.662Z,7.20
2023-04-12T17:44:30.114Z,7.40
2023-04-12T17:46:57.722Z,7.20
2023-04-12T17:49:25.151Z,7.37
2023-04-12T17:52:05.652Z,7.60
2023-04-12T17:54:37.288Z,7.47
2023-04-12T17:57:05.061Z,7.53
2023-04-12T17:59:32.844Z,7.57
2023-04-12T18:02:01.347Z,7.57
2023-04-12T18:04:30.006Z,7.93
2023-04-12T18:06:58.100Z,8.40
2023-04-12T18:09:26.564Z,7.70
2023-04-12T18:11:54.122Z,9.97
2023-04-12T18:14:21.578Z,8.07
2023-04-12T18:16:49.836Z,7.37
2023-04-12T18:19:17.954Z,6.97
2023-04-12T18:21:46.525Z,7.80
2023-04-12T18:24:14.611Z,7.37
2023-04-12T18:26:46.063Z,7.20
2023-04-12T18:29:13.423Z,7.37
2023-04-12T18:31:40.805Z,7.03
2023-04-12T18:34:09.095Z,6.97
2023-04-12T18:36:36.928Z,7.67
2023-04-12T18:39:07.213Z,7.63
2023-04-12T18:41:34.505Z,7.10
2023-04-12T18:44:02.430Z,6.87
2023-04-12T18:46:29.759Z,7.50
2023-04-12T18:48:57.027Z,6.87
2023-04-12T18:51:24.759Z,6.57
2023-04-12T18:53:52.564Z,7.20
2023-04-12T18:56:21.786Z,7.03
2023-04-12T18:58:56.001Z,9.13
2023-04-12T19:01:25.275Z,7.77
2023-04-12T19:03:52.870Z,7.13
2023-04-12T19:06:20.569Z,7.43
2023-04-12T19:08:51.817Z,7.00
2023-04-12T19:11:20.175Z,6.60
2023-04-12T19:13:49.267Z,6.43
2023-04-12T19:16:17.388Z,8.10
2023-04-12T19:18:46.294Z,7.83
2023-04-12T19:21:14.121Z,7.53
2023-04-12T19:23:42.712Z,7.50
2023-04-12T19:26:10.569Z,7.07
2023-04-12T19:28:39.506Z,7.80
2023-04-12T19:31:09.712Z,7.23
2023-04-12T19:33:41.066Z,7.67
2023-04-12T19:36:11.166Z,7.50
2023-04-12T19:38:40.392Z,7.60
2023-04-12T19:41:08.479Z,7.10
2023-04-12T19:43:36.826Z,7.97
2023-04-12T19:46:05.288Z,7.63
2023-04-12T19:48:34.025Z,7.90
2023-04-12T19:51:02.090Z,8.23
2023-04-12T19:53:32.491Z,8.27
2023-04-12T19:56:00.390Z,9.63
2023-04-12T19:58:28.017Z,7.83
2023-04-12T20:00:57.081Z,7.20
2023-04-12T20:03:26.239Z,8.50
2023-04-12T20:05:59.689Z,8.43
2023-04-12T20:08:29.783Z,7.83
2023-04-12T20:10:57.943Z,8.20
2023-04-12T20:13:28.973Z,8.27
2023-04-12T20:15:59.886Z,8.33
2023-04-12T20:18:29.194Z,7.80
2023-04-12T20:20:57.400Z,8.13
2023-04-12T20:23:28.771Z,9.03
2023-04-12T20:25:57.330Z,10.63
2023-04-12T20:28:26.692Z,8.90
2023-04-12T20:30:57.840Z,8.13
2023-04-12T20:33:25.555Z,8.27
2023-04-12T20:35:53.180Z,7.77
2023-04-12T20:38:21.627Z,8.07
2023-04-12T20:40:50.499Z,8.13
2023-04-12T20:43:19.749Z,7.80
2023-04-12T20:45:48.036Z,8.33
2023-04-12T20:48:18.234Z,10.93
2023-04-12T20:50:47.769Z,7.70
2023-04-12T20:53:16.618Z,8.10
2023-04-12T20:55:46.442Z,8.00
2023-04-12T20:58:16.224Z,7.33
2023-04-12T21:00:43.844Z,7.63
2023-04-12T21:03:11.301Z,7.30
2023-04-12T21:05:38.855Z,8.10
2023-04-12T21:08:07.608Z,8.10
2023-04-12T21:10:35.288Z,7.90
2023-04-12T21:13:02.684Z,8.57
2023-04-12T21:15:30.518Z,7.80
2023-04-12T21:17:58.029Z,7.80
2023-04-12T21:20:26.013Z,7.83
2023-04-12T21:22:53.999Z,7.60
2023-04-12T21:25:21.681Z,7.67
2023-04-12T21:27:50.569Z,7.27
2023-04-12T21:30:18.428Z,7.87
2023-04-12T21:32:46.346Z,7.73
2023-04-12T21:35:14.917Z,7.73
2023-04-12T21:37:42.364Z,7.63
2023-04-12T21:40:10.325Z,7.40
2023-04-12T21:42:39.560Z,8.13
2023-04-12T21:45:08.504Z,7.17
2023-04-12T21:47:36.312Z,7.60
2023-04-12T21:50:03.616Z,7.50
2023-04-12T21:52:30.799Z,7.83
2023-04-12T21:54:58.146Z,8.70
2023-04-12T21:57:25.469Z,8.40
2023-04-12T21:59:52.628Z,7.13
2023-04-12T22:02:19.908Z,7.33
2023-04-12T22:04:47.266Z,8.60
2023-04-12T22:07:14.488Z,8.33
2023-04-12T22:09:41.873Z,7.93
2023-04-12T22:12:09.947Z,7.87
2023-04-12T22:14:37.635Z,8.50
2023-04-12T22:17:04.846Z,8.37
2023-04-12T22:19:32.199Z,8.37
2023-04-12T22:21:59.426Z,8.00
2023-04-12T22:24:26.613Z,8.03
2023-04-12T22:26:53.742Z,8.20
2023-04-12T22:29:20.967Z,8.10
2023-04-12T22:31:48.092Z,8.50
2023-04-12T22:34:15.262Z,8.80
2023-04-12T22:36:42.636Z,8.53
2023-04-12T22:39:09.873Z,8.73
2023-04-12T22:41:37.119Z,7.93
2023-04-12T22:44:04.678Z,8.27
2023-04-12T22:46:32.032Z,7.83
2023-04-12T22:49:00.005Z,7.73
2023-04-12T22:51:27.525Z,8.10
2023-04-12T22:53:54.943Z,7.87
2023-04-12T22:56:22.570Z,8.87
2023-04-12T22:58:49.771Z,8.40
2023-04-12T23:01:17.065Z,8.00
2023-04-12T23:03:44.456Z,8.40
2023-04-12T23:06:11.621Z,8.50
2023-04-12T23:08:39.356Z,7.93
2023-04-12T23:11:07.031Z,8.20
2023-04-12T23:13:35.224Z,8.30
2023-04-12T23:16:03.096Z,8.83
2023-04-12T23:18:30.572Z,7.80
2023-04-12T23:20:57.700Z,8.50
2023-04-12T23:23:24.881Z,8.03
2023-04-12T23:25:52.376Z,8.00
2023-04-12T23:28:19.770Z,8.20
2023-04-12T23:30:49.646Z,7.63
2023-04-12T23:33:19.409Z,8.13
2023-04-12T23:35:48.958Z,7.83
2023-04-12T23:38:17.271Z,8.70
2023-04-12T23:40:44.574Z,7.57
2023-04-12T23:43:11.733Z,8.17
2023-04-12T23:45:39.089Z,7.97
2023-04-12T23:48:06.305Z,7.93
2023-04-12T23:50:33.558Z,7.83
2023-04-12T23:53:00.736Z,7.67
2023-04-12T23:55:27.892Z,7.10
2023-04-12T23:57:55.076Z,7.37
